Terminal Aerodrome Forecast
Issued by NWS Bismarck, ND

Home | Current Version | Previous Version | Graphics & Text | Print | Product List | Glossary On
Versions: 1 2 3 4 5 6 7 8 9 10 11 12 13 14 15 16 17 18 19 20 21 22
152
FTUS43 KBIS 032053 AAC
TAFBIS
TAF AMD
KBIS 032053Z 0321/0418 29010KT P6SM FEW015 BKN025
     FM032200 29010KT P6SM SCT030 BKN100
     FM040600 31006KT P6SM BKN025
     FM041500 31005KT P6SM BKN035=

USA.gov is the U.S. government's official web portal to all federal, state and local government web resources and services.